createdAt,value
2019-04-11T00:00:17.835Z,69.99
2019-04-11T00:02:47.017Z,69.87
2019-04-11T00:05:16.846Z,71.69
2019-04-11T00:07:45.351Z,71.82
2019-04-11T00:10:14.473Z,72.71
2019-04-11T00:12:43.002Z,72.69
2019-04-11T00:15:12.633Z,73.67
2019-04-11T00:17:41.845Z,73.64
2019-04-11T00:20:10.328Z,73.64
2019-04-11T00:22:38.748Z,73.28
2019-04-11T00:25:07.393Z,73.68
2019-04-11T00:27:35.788Z,73.11
2019-04-11T00:30:06.723Z,73.83
2019-04-11T00:32:35.890Z,73.95
2019-04-11T00:35:07.047Z,73.50
2019-04-11T00:37:35.650Z,73.61
2019-04-11T00:40:06.285Z,73.88
2019-04-11T00:42:34.699Z,73.76
2019-04-11T00:45:03.382Z,72.88
2019-04-11T00:47:33.154Z,72.67
2019-04-11T00:50:04.019Z,73.41
2019-04-11T00:52:33.595Z,74.01
2019-04-11T00:55:03.002Z,74.52
2019-04-11T00:57:32.559Z,75.41
2019-04-11T01:00:01.262Z,75.10
2019-04-11T01:02:30.021Z,75.43
2019-04-11T01:04:59.269Z,74.77
2019-04-11T01:07:27.710Z,75.65
2019-04-11T01:09:56.875Z,76.40
2019-04-11T01:12:25.246Z,75.92
2019-04-11T01:14:53.671Z,75.72
2019-04-11T01:17:23.256Z,75.38
2019-04-11T01:19:51.746Z,75.33
2019-04-11T01:22:20.405Z,75.39
2019-04-11T01:24:48.819Z,74.95
2019-04-11T01:27:18.098Z,74.69
2019-04-11T01:29:47.392Z,75.52
2019-04-11T01:32:16.082Z,74.36
2019-04-11T01:34:44.694Z,75.29
2019-04-11T01:37:13.074Z,75.62
2019-04-11T01:39:49.644Z,75.65
2019-04-11T01:42:19.391Z,76.13
2019-04-11T01:44:49.057Z,76.18
2019-04-11T01:47:20.294Z,75.77
2019-04-11T01:49:48.933Z,75.98
2019-04-11T01:52:18.214Z,76.20
2019-04-11T01:54:46.615Z,75.43
2019-04-11T01:57:15.860Z,75.22
2019-04-11T01:59:44.316Z,75.85
2019-04-11T02:02:26.464Z,76.79
2019-04-11T02:04:56.604Z,77.18
2019-04-11T02:07:25.054Z,77.15
2019-04-11T02:09:54.644Z,76.87
2019-04-11T02:12:23.249Z,76.96
2019-04-11T02:14:52.177Z,77.72
2019-04-11T02:17:20.631Z,76.86
2019-04-11T02:19:50.278Z,77.10
2019-04-11T02:22:38.179Z,77.74
2019-04-11T02:25:16.439Z,77.62
2019-04-11T02:27:44.939Z,76.50
2019-04-11T02:30:14.454Z,76.58
2019-04-11T02:32:45.475Z,75.04
2019-04-11T02:35:15.264Z,75.49
2019-04-11T02:37:44.399Z,76.08
2019-04-11T02:40:15.434Z,75.62
2019-04-11T02:42:45.479Z,75.64
2019-04-11T02:45:27.323Z,73.69
2019-04-11T02:47:48.230Z,73.83
2019-04-11T02:50:17.122Z,74.64
2019-04-11T02:52:47.228Z,74.13
2019-04-11T02:55:17.124Z,73.40
2019-04-11T02:57:46.639Z,74.45
2019-04-11T03:00:18.112Z,74.89
2019-04-11T03:02:50.246Z,75.16
2019-04-11T03:05:18.552Z,75.44
2019-04-11T03:07:47.743Z,74.30
2019-04-11T03:10:16.511Z,74.29
2019-04-11T03:12:46.455Z,74.53
2019-04-11T03:15:31.661Z,76.03
2019-04-11T03:17:48.626Z,76.84
2019-04-11T03:20:26.456Z,76.90
2019-04-11T03:22:54.158Z,76.49
2019-04-11T03:25:17.833Z,76.00
2019-04-11T03:27:47.507Z,76.12
2019-04-11T03:30:23.447Z,76.50
2019-04-11T03:33:43.610Z,76.36
2019-04-11T03:36:07.536Z,76.10
2019-04-11T03:38:13.327Z,75.97
2019-04-11T03:40:36.209Z,75.84
2019-04-11T03:43:04.056Z,75.55
2019-04-11T03:45:38.123Z,75.51
2019-04-11T03:48:05.998Z,75.04
2019-04-11T03:50:23.332Z,75.17
2019-04-11T03:52:49.729Z,75.49
2019-04-11T03:55:21.694Z,76.23
2019-04-11T03:57:51.848Z,76.83
2019-04-11T04:00:22.147Z,76.53
2019-04-11T04:02:52.581Z,77.04
2019-04-11T04:05:21.753Z,77.34
2019-04-11T04:07:50.590Z,76.99
2019-04-11T04:10:21.261Z,77.22
2019-04-11T04:12:51.485Z,77.43
2019-04-11T04:15:44.278Z,76.78
2019-04-11T04:18:14.265Z,76.89
2019-04-11T04:20:57.716Z,76.79
2019-04-11T04:23:29.432Z,77.30
2019-04-11T04:26:01.046Z,77.09
2019-04-11T04:28:29.582Z,77.58
2019-04-11T04:31:00.230Z,77.76
2019-04-11T04:33:29.493Z,77.96
2019-04-11T04:36:00.248Z,78.09
2019-04-11T04:38:29.615Z,78.16
2019-04-11T04:41:12.596Z,78.30
2019-04-11T04:43:31.672Z,78.33
2019-04-11T04:46:18.491Z,78.36
2019-04-11T04:48:32.354Z,78.81
2019-04-11T04:51:07.303Z,78.72
2019-04-11T04:53:33.058Z,78.56
2019-04-11T04:56:02.668Z,78.55
2019-04-11T04:58:31.659Z,78.18
2019-04-11T05:01:01.390Z,77.96
2019-04-11T05:03:32.073Z,78.09
2019-04-11T05:06:03.363Z,77.11
2019-04-11T05:08:32.558Z,76.95
2019-04-11T05:11:02.368Z,77.77
2019-04-11T05:13:32.217Z,78.42
2019-04-11T05:16:08.509Z,78.18
2019-04-11T05:18:32.032Z,78.42
2019-04-11T05:21:01.090Z,77.51
2019-04-11T05:23:29.849Z,78.08
2019-04-11T05:25:59.977Z,77.12
2019-04-11T05:28:29.720Z,76.98
2019-04-11T05:30:58.410Z,77.37
2019-04-11T05:33:27.393Z,76.87
2019-04-11T05:35:56.455Z,76.73
2019-04-11T05:38:25.342Z,77.65
2019-04-11T05:40:54.575Z,78.17
2019-04-11T05:43:28.136Z,79.31
2019-04-11T05:45:55.125Z,77.62
2019-04-11T05:48:31.061Z,77.93
2019-04-11T05:51:00.535Z,75.89
2019-04-11T05:53:32.839Z,75.74
2019-04-11T05:56:01.590Z,76.54
2019-04-11T05:58:32.489Z,72.30
2019-04-11T06:01:20.198Z,73.94
2019-04-11T06:03:50.448Z,75.17
2019-04-11T06:06:26.873Z,72.75
2019-04-11T06:09:00.625Z,72.41
2019-04-11T06:11:48.171Z,71.45
2019-04-11T06:14:29.756Z,69.02
2019-04-11T06:17:00.874Z,68.02
2019-04-11T06:19:37.626Z,66.83
2019-04-11T06:22:08.698Z,66.19
2019-04-11T06:24:56.999Z,63.33
2019-04-11T06:27:30.481Z,62.87
2019-04-11T06:30:17.917Z,62.56
2019-04-11T06:33:04.635Z,61.22
2019-04-11T06:35:44.201Z,61.90
2019-04-11T06:38:30.473Z,59.76
2019-04-11T06:41:00.580Z,58.17
2019-04-11T06:43:43.109Z,59.34
2019-04-11T06:46:18.842Z,55.70
2019-04-11T06:48:56.080Z,54.89
2019-04-11T06:51:26.198Z,54.47
2019-04-11T06:54:12.715Z,56.61
2019-04-11T06:56:45.782Z,53.78
2019-04-11T06:59:16.408Z,53.74
2019-04-11T07:01:47.491Z,51.63
2019-04-11T07:04:23.711Z,49.30
2019-04-11T07:06:53.846Z,50.32
2019-04-11T07:09:33.016Z,50.61
2019-04-11T07:12:09.775Z,52.14
2019-04-11T07:14:48.614Z,50.78
2019-04-11T07:17:34.585Z,52.00
2019-04-11T07:20:20.782Z,50.68
2019-04-11T07:23:07.906Z,50.58
2019-04-11T07:25:56.193Z,51.42
2019-04-11T07:28:32.198Z,49.51
2019-04-11T07:31:21.568Z,48.08
2019-04-11T07:33:51.968Z,48.22
2019-04-11T07:36:38.439Z,46.36
2019-04-11T07:39:12.911Z,47.21
2019-04-11T07:41:43.904Z,47.60
2019-04-11T07:44:21.805Z,46.44
2019-04-11T07:46:58.217Z,47.85
2019-04-11T07:49:37.787Z,47.69
2019-04-11T07:52:07.438Z,45.98
2019-04-11T07:54:36.955Z,46.02
2019-04-11T07:57:10.472Z,45.08
2019-04-11T07:59:43.112Z,46.57
2019-04-11T08:02:31.408Z,45.28
2019-04-11T08:05:19.093Z,46.31
2019-04-11T08:08:06.833Z,44.15
2019-04-11T08:10:43.690Z,44.79
2019-04-11T08:13:20.691Z,44.42
2019-04-11T08:15:50.810Z,46.39
2019-04-11T08:18:24.342Z,44.94
2019-04-11T08:20:57.452Z,44.66
2019-04-11T08:23:26.313Z,41.83
2019-04-11T08:26:06.133Z,43.87
2019-04-11T08:28:35.594Z,44.29
2019-04-11T08:31:11.435Z,43.82
2019-04-11T08:33:40.497Z,41.99
2019-04-11T08:36:13.777Z,43.24
2019-04-11T08:38:42.627Z,44.00
2019-04-11T08:41:27.903Z,44.13
2019-04-11T08:43:56.625Z,39.35
2019-04-11T08:46:33.044Z,41.65
2019-04-11T08:49:19.456Z,41.35
2019-04-11T08:51:47.810Z,40.36
2019-04-11T08:54:29.860Z,40.27
2019-04-11T08:56:59.112Z,41.89
2019-04-11T08:59:44.259Z,41.59
2019-04-11T09:02:12.814Z,40.61
2019-04-11T09:05:07.064Z,39.59
2019-04-11T09:07:31.775Z,40.62
2019-04-11T09:10:18.355Z,42.48
2019-04-11T09:12:48.936Z,43.26
2019-04-11T09:15:21.616Z,38.86
2019-04-11T09:17:58.689Z,39.62
2019-04-11T09:20:40.206Z,38.55
2019-04-11T09:23:11.318Z,39.66
2019-04-11T09:25:41.376Z,39.10
2019-04-11T09:28:11.437Z,37.17
2019-04-11T09:30:59.384Z,42.69
2019-04-11T09:33:46.998Z,38.19
2019-04-11T09:36:33.120Z,41.86
2019-04-11T09:39:19.690Z,38.75
2019-04-11T09:41:56.610Z,36.98
2019-04-11T09:44:26.742Z,39.29
2019-04-11T09:46:57.140Z,37.59
2019-04-11T09:49:27.208Z,37.42
2019-04-11T09:52:04.354Z,39.35
2019-04-11T09:54:47.319Z,37.40
2019-04-11T09:57:18.597Z,36.47
2019-04-11T09:59:49.714Z,36.15
2019-04-11T10:02:28.835Z,35.87
2019-04-11T10:05:01.416Z,37.62
2019-04-11T10:07:37.611Z,37.42
2019-04-11T10:10:10.895Z,38.14
2019-04-11T10:12:40.934Z,38.52
2019-04-11T10:15:11.314Z,37.71
2019-04-11T10:17:42.490Z,38.69
2019-04-11T10:20:12.822Z,38.88
2019-04-11T10:22:43.931Z,39.03
2019-04-11T10:25:14.869Z,38.39
2019-04-11T10:27:44.925Z,37.96
2019-04-11T10:30:22.464Z,36.71
2019-04-11T10:33:09.449Z,39.01
2019-04-11T10:35:48.832Z,39.94
2019-04-11T10:38:18.877Z,38.64
2019-04-11T10:40:50.297Z,37.90
2019-04-11T10:43:18.941Z,39.60
2019-04-11T10:45:51.653Z,39.66
2019-04-11T10:48:33.503Z,38.39
2019-04-11T10:50:53.483Z,36.12
2019-04-11T10:53:22.871Z,37.25
2019-04-11T10:56:02.233Z,38.03
2019-04-11T10:58:33.110Z,39.59
2019-04-11T11:01:03.960Z,38.75
2019-04-11T11:03:40.080Z,35.36
2019-04-11T11:06:11.288Z,42.77
2019-04-11T11:08:57.717Z,39.11
2019-04-11T11:11:28.347Z,38.71
2019-04-11T11:14:14.296Z,37.34
2019-04-11T11:17:00.554Z,43.05
2019-04-11T11:19:59.290Z,38.02
2019-04-11T11:22:34.930Z,38.25
2019-04-11T11:25:23.229Z,38.35
2019-04-11T11:27:52.369Z,40.37
2019-04-11T11:30:23.106Z,40.37
2019-04-11T11:32:51.787Z,37.13
2019-04-11T11:35:40.475Z,34.27
2019-04-11T11:38:11.326Z,37.72
2019-04-11T11:40:43.141Z,37.63
2019-04-11T11:43:13.319Z,36.87
2019-04-11T11:46:03.009Z,38.94
2019-04-11T11:48:39.696Z,39.13
2019-04-11T11:51:13.063Z,37.08
2019-04-11T11:53:55.471Z,37.70
2019-04-11T11:56:24.263Z,36.34
2019-04-11T11:59:03.128Z,37.39
2019-04-11T12:01:31.619Z,39.81
2019-04-11T12:04:17.603Z,35.62
2019-04-11T12:06:48.948Z,36.39
2019-04-11T12:09:34.251Z,36.09
2019-04-11T12:12:04.378Z,37.19
2019-04-11T12:14:43.457Z,35.99
2019-04-11T12:17:14.585Z,39.75
2019-04-11T12:19:51.336Z,38.41
2019-04-11T12:22:16.035Z,34.50
2019-04-11T12:24:46.260Z,33.87
2019-04-11T12:27:16.537Z,40.93
2019-04-11T12:29:48.999Z,36.75
2019-04-11T12:32:24.292Z,34.97
2019-04-11T12:34:54.297Z,38.28
2019-04-11T12:37:25.281Z,35.74
2019-04-11T12:40:11.802Z,35.92
2019-04-11T12:42:41.266Z,39.13
2019-04-11T12:45:20.612Z,38.48
2019-04-11T12:47:49.082Z,39.24
2019-04-11T12:50:29.090Z,35.71
2019-04-11T12:53:02.091Z,37.35
2019-04-11T12:55:50.373Z,37.37
2019-04-11T12:58:22.856Z,37.39
2019-04-11T13:01:07.941Z,35.32
2019-04-11T13:03:54.122Z,37.12
2019-04-11T13:06:39.490Z,40.33
2019-04-11T13:09:23.222Z,41.33
2019-04-11T13:12:09.685Z,38.93
2019-04-11T13:14:54.871Z,34.80
2019-04-11T13:17:27.766Z,35.97
2019-04-11T13:20:04.896Z,34.04
2019-04-11T13:22:31.800Z,36.92
2019-04-11T13:25:17.764Z,35.81
2019-04-11T13:27:47.797Z,35.10
2019-04-11T13:30:33.041Z,34.92
2019-04-11T13:33:01.706Z,35.54
2019-04-11T13:35:31.807Z,32.13
2019-04-11T13:38:07.729Z,33.67
2019-04-11T13:40:40.192Z,34.41
2019-04-11T13:43:10.231Z,39.13
2019-04-11T13:45:50.263Z,35.41
2019-04-11T13:48:36.361Z,32.94
2019-04-11T13:51:12.165Z,34.69
2019-04-11T13:53:44.899Z,33.01
2019-04-11T13:56:13.562Z,32.61
2019-04-11T13:58:55.725Z,34.56
2019-04-11T14:01:24.120Z,35.19
2019-04-11T14:03:59.878Z,32.50
2019-04-11T14:06:28.469Z,34.43
2019-04-11T14:09:01.992Z,32.72
2019-04-11T14:11:31.606Z,32.07
2019-04-11T14:14:03.050Z,32.90
2019-04-11T14:16:32.521Z,32.75
2019-04-11T14:19:11.686Z,33.34
2019-04-11T14:21:38.236Z,33.45
2019-04-11T14:24:13.764Z,33.65
2019-04-11T14:26:43.817Z,32.72
2019-04-11T14:29:16.746Z,33.09
2019-04-11T14:31:50.968Z,34.69
2019-04-11T14:34:33.592Z,35.22
2019-04-11T14:37:03.732Z,36.35
2019-04-11T14:39:36.162Z,34.44
2019-04-11T14:42:24.472Z,33.22
2019-04-11T14:44:54.622Z,32.82
2019-04-11T14:47:24.659Z,32.98
2019-04-11T14:49:54.726Z,33.15
2019-04-11T14:52:41.463Z,34.37
2019-04-11T14:55:09.854Z,32.31
2019-04-11T14:57:42.801Z,33.70
2019-04-11T15:00:18.752Z,32.22
2019-04-11T15:02:48.785Z,32.21
2019-04-11T15:05:24.847Z,31.20
2019-04-11T15:07:53.315Z,32.82
2019-04-11T15:10:23.357Z,35.00
2019-04-11T15:12:53.141Z,32.31
2019-04-11T15:15:29.069Z,34.80
2019-04-11T15:17:59.142Z,32.06
2019-04-11T15:20:54.913Z,32.91
2019-04-11T15:23:17.525Z,33.27
2019-04-11T15:26:07.896Z,34.21
2019-04-11T15:28:47.847Z,33.56
2019-04-11T15:31:20.864Z,30.66
2019-04-11T15:34:03.058Z,32.50
2019-04-11T15:36:31.527Z,32.43
2019-04-11T15:39:01.562Z,33.48
2019-04-11T15:41:31.665Z,33.21
2019-04-11T15:44:18.073Z,31.68
2019-04-11T15:46:47.896Z,32.12
2019-04-11T15:49:34.437Z,31.81
2019-04-11T15:52:06.806Z,30.68
2019-04-11T15:54:39.457Z,30.43
2019-04-11T15:57:12.578Z,30.45
2019-04-11T15:59:50.044Z,30.06
2019-04-11T16:02:23.072Z,31.25
2019-04-11T16:05:02.881Z,31.55
2019-04-11T16:07:49.462Z,30.84
2019-04-11T16:10:19.433Z,32.00
2019-04-11T16:12:55.429Z,32.67
2019-04-11T16:15:25.711Z,32.67
2019-04-11T16:18:15.721Z,31.88
2019-04-11T16:20:42.214Z,33.00
2019-04-11T16:23:27.388Z,32.77
2019-04-11T16:25:55.785Z,34.40
2019-04-11T16:28:31.493Z,35.04
2019-04-11T16:30:59.916Z,37.20
2019-04-11T16:33:32.528Z,35.39
2019-04-11T16:36:02.919Z,34.60
2019-04-11T16:38:33.213Z,32.72
2019-04-11T16:41:23.780Z,32.75
2019-04-11T16:43:54.648Z,35.60
2019-04-11T16:46:41.303Z,34.14
2019-04-11T16:49:09.703Z,33.64
2019-04-11T16:51:38.106Z,36.29
2019-04-11T16:54:09.577Z,33.71
2019-04-11T16:56:36.648Z,33.33
2019-04-11T16:59:05.037Z,33.35
2019-04-11T17:01:34.095Z,32.57
2019-04-11T17:04:02.486Z,32.96
2019-04-11T17:06:35.671Z,33.16
2019-04-11T17:09:07.572Z,33.35
2019-04-11T17:11:35.973Z,32.75
2019-04-11T17:14:05.215Z,32.73
2019-04-11T17:16:33.641Z,34.69
2019-04-11T17:19:05.178Z,33.70
2019-04-11T17:21:42.711Z,33.92
2019-04-11T17:24:02.302Z,33.73
2019-04-11T17:26:30.692Z,34.03
2019-04-11T17:28:59.087Z,33.60
2019-04-11T17:31:27.934Z,34.72
2019-04-11T17:33:56.716Z,33.35
2019-04-11T17:36:26.445Z,34.64
2019-04-11T17:38:54.876Z,34.29
2019-04-11T17:41:23.273Z,34.97
2019-04-11T17:43:51.963Z,35.07
2019-04-11T17:46:20.368Z,34.51
2019-04-11T17:48:50.430Z,34.60
2019-04-11T17:51:18.930Z,35.33
2019-04-11T17:53:47.350Z,33.89
2019-04-11T17:56:15.741Z,35.25
2019-04-11T17:58:44.157Z,35.29
2019-04-11T18:01:12.621Z,35.33
2019-04-11T18:03:42.108Z,36.39
2019-04-11T18:06:10.992Z,35.28
2019-04-11T18:08:39.383Z,36.05
2019-04-11T18:11:07.794Z,36.43
2019-04-11T18:13:36.181Z,37.02
2019-04-11T18:16:04.580Z,37.13
2019-04-11T18:18:35.237Z,37.50
2019-04-11T18:21:07.106Z,37.75
2019-04-11T18:23:35.852Z,37.92
2019-04-11T18:26:04.571Z,39.50
2019-04-11T18:28:32.964Z,43.20
2019-04-11T18:31:01.355Z,43.95
2019-04-11T18:33:31.704Z,45.56
2019-04-11T18:36:02.323Z,46.89
2019-04-11T18:38:32.004Z,47.91
2019-04-11T18:41:01.076Z,47.69
2019-04-11T18:43:29.463Z,48.59
2019-04-11T18:45:57.860Z,46.75
2019-04-11T18:48:26.275Z,46.09
2019-04-11T18:50:54.666Z,45.23
2019-04-11T18:53:23.061Z,45.43
2019-04-11T18:55:51.472Z,45.43
2019-04-11T18:58:19.862Z,45.36
2019-04-11T19:00:48.598Z,45.44
2019-04-11T19:03:17.676Z,45.48
2019-04-11T19:05:46.091Z,45.40
2019-04-11T19:08:14.558Z,44.80
2019-04-11T19:10:45.765Z,45.14
2019-04-11T19:13:16.691Z,45.54
2019-04-11T19:15:45.495Z,45.06
2019-04-11T19:18:16.044Z,44.77
2019-04-11T19:20:43.649Z,45.16
2019-04-11T19:23:15.015Z,45.43
2019-04-11T19:25:45.163Z,45.82
2019-04-11T19:28:13.658Z,45.50
2019-04-11T19:30:42.458Z,46.17
2019-04-11T19:33:11.126Z,46.12
2019-04-11T19:35:41.730Z,47.04
2019-04-11T19:38:12.244Z,45.43
2019-04-11T19:40:41.283Z,46.30
2019-04-11T19:43:09.690Z,48.39
2019-04-11T19:45:38.091Z,47.95
2019-04-11T19:48:06.515Z,47.34
2019-04-11T19:50:34.911Z,46.73
2019-04-11T19:53:03.523Z,46.91
2019-04-11T19:55:48.981Z,47.04
2019-04-11T19:58:19.287Z,46.61
2019-04-11T20:00:51.140Z,46.75
2019-04-11T20:03:18.327Z,46.81
2019-04-11T20:05:46.778Z,47.24
2019-04-11T20:08:15.123Z,48.37
2019-04-11T20:10:43.534Z,47.89
2019-04-11T20:13:12.901Z,47.09
2019-04-11T20:15:42.412Z,46.78
2019-04-11T20:18:11.494Z,48.85
2019-04-11T20:20:40.212Z,47.28
2019-04-11T20:23:11.029Z,46.29
2019-04-11T20:25:38.766Z,47.46
2019-04-11T20:28:07.155Z,47.63
2019-04-11T20:30:35.555Z,48.66
2019-04-11T20:33:04.251Z,49.35
2019-04-11T20:35:32.648Z,48.52
2019-04-11T20:38:01.044Z,49.66
2019-04-11T20:40:29.476Z,49.55
2019-04-11T20:42:58.327Z,50.27
2019-04-11T20:45:28.774Z,49.67
2019-04-11T20:47:59.814Z,50.42
2019-04-11T20:50:28.237Z,50.72
2019-04-11T20:52:59.267Z,51.26
2019-04-11T20:55:26.794Z,51.50
2019-04-11T20:57:55.182Z,51.93
2019-04-11T21:00:23.581Z,52.19
2019-04-11T21:02:51.995Z,53.42
2019-04-11T21:05:20.386Z,54.36
2019-04-11T21:07:48.778Z,55.21
2019-04-11T21:10:17.187Z,53.47
2019-04-11T21:12:45.880Z,54.07
2019-04-11T21:15:14.345Z,55.03
2019-04-11T21:17:42.769Z,54.65
2019-04-11T21:20:11.230Z,54.00
2019-04-11T21:22:39.627Z,53.92
2019-04-11T21:25:08.113Z,53.65
2019-04-11T21:27:36.513Z,54.19
2019-04-11T21:30:06.815Z,53.11
2019-04-11T21:32:35.235Z,54.26
2019-04-11T21:35:04.471Z,54.87
2019-04-11T21:37:32.861Z,54.70
2019-04-11T21:40:01.279Z,54.48
2019-04-11T21:42:29.672Z,54.89
2019-04-11T21:44:58.085Z,54.18
2019-04-11T21:47:26.489Z,54.91
2019-04-11T21:49:54.870Z,55.21
2019-04-11T21:52:23.289Z,54.86
2019-04-11T21:54:51.690Z,54.22
2019-04-11T21:57:20.093Z,54.40
2019-04-11T21:59:51.245Z,54.12
2019-04-11T22:02:18.870Z,55.01
2019-04-11T22:04:47.261Z,55.29
2019-04-11T22:07:15.675Z,54.95
2019-04-11T22:09:44.069Z,55.76
2019-04-11T22:12:12.499Z,55.98
2019-04-11T22:14:41.915Z,57.08
2019-04-11T22:17:15.128Z,57.43
2019-04-11T22:19:45.157Z,57.66
2019-04-11T22:22:11.257Z,57.17
2019-04-11T22:24:39.650Z,57.65
2019-04-11T22:27:08.039Z,57.70
2019-04-11T22:29:36.460Z,57.79
2019-04-11T22:32:04.930Z,58.16
2019-04-11T22:34:34.969Z,58.77
2019-04-11T22:37:03.796Z,59.26
2019-04-11T22:39:32.189Z,59.80
2019-04-11T22:42:00.909Z,59.97
2019-04-11T22:44:29.327Z,59.83
2019-04-11T22:46:57.724Z,59.67
2019-04-11T22:49:26.118Z,60.34
2019-04-11T22:51:54.546Z,60.22
2019-04-11T22:54:22.948Z,60.72
2019-04-11T22:56:51.344Z,60.65
2019-04-11T22:59:19.762Z,61.58
2019-04-11T23:01:48.825Z,61.92
2019-04-11T23:04:17.670Z,61.44
2019-04-11T23:06:47.150Z,62.15
2019-04-11T23:09:16.595Z,61.93
2019-04-11T23:11:46.418Z,61.73
2019-04-11T23:14:15.948Z,62.11
2019-04-11T23:16:44.993Z,62.57
2019-04-11T23:19:14.438Z,63.07
2019-04-11T23:21:42.806Z,63.84
2019-04-11T23:24:12.122Z,63.53
2019-04-11T23:26:40.604Z,64.59
2019-04-11T23:29:09.014Z,63.88
2019-04-11T23:31:37.426Z,64.12
2019-04-11T23:34:05.823Z,64.39
2019-04-11T23:36:34.220Z,64.49
2019-04-11T23:39:02.970Z,64.43
2019-04-11T23:41:31.367Z,64.75
2019-04-11T23:43:59.761Z,64.70
2019-04-11T23:46:28.190Z,65.30
2019-04-11T23:48:56.590Z,65.13
2019-04-11T23:51:26.292Z,65.71
2019-04-11T23:53:59.029Z,65.84
2019-04-11T23:56:25.292Z,65.90
2019-04-11T23:58:53.689Z,66.04
